createdAt,value
2023-01-08T00:00:17.576Z,16.97
2023-01-08T00:02:45.059Z,17.02
2023-01-08T00:05:12.285Z,16.92
2023-01-08T00:07:40.377Z,16.61
2023-01-08T00:10:08.144Z,16.88
2023-01-08T00:12:35.618Z,16.53
2023-01-08T00:15:02.382Z,16.72
2023-01-08T00:17:29.639Z,16.50
2023-01-08T00:19:56.944Z,16.82
2023-01-08T00:22:24.426Z,17.05
2023-01-08T00:24:53.370Z,16.55
2023-01-08T00:27:20.591Z,16.37
2023-01-08T00:29:47.777Z,16.75
2023-01-08T00:32:15.626Z,16.39
2023-01-08T00:34:42.785Z,16.66
2023-01-08T00:37:10.173Z,16.31
2023-01-08T00:39:37.615Z,16.59
2023-01-08T00:42:06.759Z,16.71
2023-01-08T00:44:33.912Z,16.65
2023-01-08T00:47:01.515Z,16.53
2023-01-08T00:49:29.023Z,16.76
2023-01-08T00:51:56.763Z,16.38
2023-01-08T00:54:24.087Z,16.63
2023-01-08T00:56:51.280Z,16.73
2023-01-08T00:59:20.503Z,16.91
2023-01-08T01:01:48.692Z,16.94
2023-01-08T01:04:16.274Z,16.90
2023-01-08T01:06:43.541Z,16.73
2023-01-08T01:09:11.403Z,16.97
2023-01-08T01:11:38.757Z,17.09
2023-01-08T01:14:06.002Z,16.97
2023-01-08T01:16:35.068Z,16.42
2023-01-08T01:19:02.587Z,16.36
2023-01-08T01:21:31.983Z,16.56
2023-01-08T01:24:01.142Z,17.16
2023-01-08T01:26:28.341Z,17.14
2023-01-08T01:28:57.611Z,17.24
2023-01-08T01:31:27.152Z,16.79
2023-01-08T01:33:55.895Z,17.37
2023-01-08T01:36:24.420Z,17.39
2023-01-08T01:38:53.533Z,17.13
2023-01-08T01:41:26.404Z,16.58
2023-01-08T01:43:55.124Z,16.76
2023-01-08T01:46:34.680Z,16.61
2023-01-08T01:49:09.053Z,16.99
2023-01-08T01:51:37.403Z,16.99
2023-01-08T01:54:07.835Z,16.87
2023-01-08T01:56:35.462Z,16.77
2023-01-08T01:59:03.307Z,16.27
2023-01-08T02:01:32.163Z,16.92
2023-01-08T02:03:59.780Z,16.89
2023-01-08T02:06:37.134Z,17.20
2023-01-08T02:09:13.506Z,17.23
2023-01-08T02:11:47.495Z,17.35
2023-01-08T02:14:23.867Z,17.48
2023-01-08T02:16:56.237Z,17.28
2023-01-08T02:19:37.863Z,17.14
2023-01-08T02:22:20.200Z,17.53
2023-01-08T02:24:55.739Z,17.48
2023-01-08T02:27:28.079Z,17.76
2023-01-08T02:29:57.269Z,17.77
2023-01-08T02:32:27.598Z,17.13
2023-01-08T02:34:54.564Z,17.51
2023-01-08T02:37:22.492Z,17.52
2023-01-08T02:40:02.118Z,17.52
2023-01-08T02:42:39.720Z,17.57
2023-01-08T02:45:18.894Z,17.53
2023-01-08T02:47:52.143Z,17.44
2023-01-08T02:50:24.687Z,17.36
2023-01-08T02:52:58.814Z,17.17
2023-01-08T02:55:28.573Z,17.43
2023-01-08T02:57:58.879Z,17.37
2023-01-08T03:00:27.935Z,17.33
2023-01-08T03:03:04.160Z,17.46
2023-01-08T03:05:31.875Z,17.33
2023-01-08T03:07:59.230Z,17.65
2023-01-08T03:10:30.699Z,17.51
2023-01-08T03:13:04.672Z,17.25
2023-01-08T03:15:37.900Z,17.29
2023-01-08T03:18:09.712Z,17.44
2023-01-08T03:20:39.086Z,17.31
2023-01-08T03:23:09.917Z,17.24
2023-01-08T03:25:41.745Z,17.34
2023-01-08T03:28:15.287Z,16.98
2023-01-08T03:30:44.637Z,17.00
2023-01-08T03:33:14.053Z,16.99
2023-01-08T03:35:44.089Z,17.15
2023-01-08T03:38:16.186Z,17.07
2023-01-08T03:40:48.098Z,16.89
2023-01-08T03:43:16.493Z,16.87
2023-01-08T03:45:51.648Z,16.65
2023-01-08T03:48:21.126Z,17.02
2023-01-08T03:50:48.770Z,16.90
2023-01-08T03:53:16.223Z,16.94
2023-01-08T03:55:43.808Z,16.55
2023-01-08T03:58:11.239Z,16.60
2023-01-08T04:00:40.034Z,16.74
2023-01-08T04:03:07.715Z,16.54
2023-01-08T04:05:34.979Z,16.69
2023-01-08T04:08:02.434Z,16.58
2023-01-08T04:10:29.881Z,16.76
2023-01-08T04:12:57.087Z,16.78
2023-01-08T04:15:24.347Z,16.68
2023-01-08T04:17:53.826Z,16.73
2023-01-08T04:20:20.651Z,16.57
2023-01-08T04:22:47.762Z,16.71
2023-01-08T04:25:15.644Z,15.86
2023-01-08T04:27:42.825Z,15.71
2023-01-08T04:30:11.474Z,16.19
2023-01-08T04:32:38.934Z,16.22
2023-01-08T04:35:08.600Z,16.11
2023-01-08T04:37:35.907Z,15.91
2023-01-08T04:40:03.443Z,16.04
2023-01-08T04:42:30.925Z,15.88
2023-01-08T04:44:58.383Z,15.89
2023-01-08T04:47:25.883Z,16.23
2023-01-08T04:49:53.383Z,16.13
2023-01-08T04:52:22.248Z,16.37
2023-01-08T04:54:49.667Z,16.54
2023-01-08T04:57:16.456Z,16.42
2023-01-08T04:59:43.930Z,16.44
2023-01-08T05:02:11.563Z,15.95
2023-01-08T05:04:38.506Z,16.22
2023-01-08T05:07:05.566Z,16.01
2023-01-08T05:09:34.384Z,16.28
2023-01-08T05:12:01.602Z,16.31
2023-01-08T05:14:28.862Z,15.99
2023-01-08T05:16:56.516Z,14.86
2023-01-08T05:19:23.763Z,15.61
2023-01-08T05:21:51.012Z,15.21
2023-01-08T05:24:18.699Z,14.63
2023-01-08T05:26:47.392Z,15.01
2023-01-08T05:29:14.583Z,15.30
2023-01-08T05:31:42.493Z,14.82
2023-01-08T05:34:09.799Z,15.12
2023-01-08T05:36:37.032Z,14.81
2023-01-08T05:39:04.772Z,14.88
2023-01-08T05:41:32.066Z,14.64
2023-01-08T05:44:01.034Z,14.97
2023-01-08T05:46:28.055Z,15.18
2023-01-08T05:48:55.348Z,15.05
2023-01-08T05:51:22.541Z,14.82
2023-01-08T05:53:50.027Z,15.11
2023-01-08T05:56:17.522Z,15.37
2023-01-08T05:58:44.913Z,15.11
2023-01-08T06:01:15.773Z,14.99
2023-01-08T06:03:43.261Z,14.80
2023-01-08T06:06:11.698Z,14.67
2023-01-08T06:08:39.595Z,14.44
2023-01-08T06:11:08.446Z,14.61
2023-01-08T06:13:36.911Z,14.59
2023-01-08T06:16:04.758Z,14.50
2023-01-08T06:18:33.672Z,14.52
2023-01-08T06:21:02.399Z,14.53
2023-01-08T06:23:29.785Z,14.54
2023-01-08T06:25:59.999Z,14.64
2023-01-08T06:28:27.729Z,14.49
2023-01-08T06:30:57.456Z,14.64
2023-01-08T06:33:24.891Z,14.84
2023-01-08T06:35:53.740Z,14.85
2023-01-08T06:38:21.531Z,14.72
2023-01-08T06:40:49.065Z,14.73
2023-01-08T06:43:15.836Z,14.76
2023-01-08T06:45:43.311Z,14.92
2023-01-08T06:48:10.456Z,14.95
2023-01-08T06:50:38.028Z,14.87
2023-01-08T06:53:07.001Z,14.77
2023-01-08T06:55:34.643Z,14.80
2023-01-08T06:58:01.864Z,14.86
2023-01-08T07:00:29.194Z,14.97
2023-01-08T07:02:56.878Z,14.86
2023-01-08T07:05:24.662Z,14.83
2023-01-08T07:07:52.323Z,14.92
2023-01-08T07:10:21.038Z,15.01
2023-01-08T07:12:48.266Z,14.92
2023-01-08T07:15:16.551Z,14.82
2023-01-08T07:17:44.089Z,14.89
2023-01-08T07:20:11.767Z,14.83
2023-01-08T07:22:39.380Z,14.74
2023-01-08T07:25:07.965Z,14.62
2023-01-08T07:27:36.841Z,14.44
2023-01-08T07:30:05.050Z,14.03
2023-01-08T07:32:32.243Z,13.49
2023-01-08T07:34:59.005Z,14.08
2023-01-08T07:37:26.912Z,14.34
2023-01-08T07:39:53.668Z,13.89
2023-01-08T07:42:20.995Z,14.19
2023-01-08T07:44:50.135Z,14.03
2023-01-08T07:47:17.481Z,13.75
2023-01-08T07:49:45.024Z,13.96
2023-01-08T07:52:12.267Z,13.82
2023-01-08T07:54:39.634Z,13.44
2023-01-08T07:57:06.499Z,13.71
2023-01-08T07:59:33.977Z,14.41
2023-01-08T08:02:02.236Z,14.71
2023-01-08T08:04:29.810Z,14.06
2023-01-08T08:06:57.508Z,14.13
2023-01-08T08:09:24.914Z,14.19
2023-01-08T08:11:52.192Z,14.35
2023-01-08T08:14:19.937Z,14.78
2023-01-08T08:16:47.235Z,14.89
2023-01-08T08:19:15.905Z,14.99
2023-01-08T08:21:43.228Z,14.50
2023-01-08T08:24:10.701Z,14.31
2023-01-08T08:26:37.873Z,14.43
2023-01-08T08:29:06.341Z,14.66
2023-01-08T08:31:33.507Z,14.48
2023-01-08T08:34:00.771Z,14.53
2023-01-08T08:36:32.749Z,13.73
2023-01-08T08:38:59.947Z,14.52
2023-01-08T08:41:27.342Z,13.90
2023-01-08T08:43:55.214Z,14.52
2023-01-08T08:46:22.711Z,14.58
2023-01-08T08:48:50.837Z,14.81
2023-01-08T08:51:18.180Z,14.35
2023-01-08T08:53:46.932Z,14.61
2023-01-08T08:56:14.141Z,14.16
2023-01-08T08:58:41.550Z,14.61
2023-01-08T09:01:09.224Z,14.86
2023-01-08T09:03:36.636Z,14.69
2023-01-08T09:06:04.520Z,14.97
2023-01-08T09:08:31.256Z,14.60
2023-01-08T09:11:02.251Z,15.06
2023-01-08T09:13:29.702Z,14.76
2023-01-08T09:15:58.669Z,14.00
2023-01-08T09:18:25.987Z,14.17
2023-01-08T09:20:53.453Z,14.98
2023-01-08T09:23:20.835Z,15.14
2023-01-08T09:25:47.814Z,15.08
2023-01-08T09:28:16.629Z,14.74
2023-01-08T09:30:43.817Z,14.62
2023-01-08T09:33:11.282Z,14.95
2023-01-08T09:35:38.824Z,14.63
2023-01-08T09:38:06.218Z,14.85
2023-01-08T09:40:37.868Z,14.48
2023-01-08T09:43:05.449Z,14.71
2023-01-08T09:45:37.396Z,15.01
2023-01-08T09:48:07.929Z,14.26
2023-01-08T09:50:35.468Z,14.22
2023-01-08T09:53:02.964Z,14.76
2023-01-08T09:55:34.388Z,15.13
2023-01-08T09:58:03.423Z,15.03
2023-01-08T10:00:34.678Z,14.86
2023-01-08T10:03:02.827Z,15.18
2023-01-08T10:05:30.881Z,15.92
2023-01-08T10:07:58.297Z,15.13
2023-01-08T10:10:29.589Z,15.36
2023-01-08T10:12:57.317Z,15.21
2023-01-08T10:15:25.397Z,15.18
2023-01-08T10:18:02.844Z,14.91
2023-01-08T10:20:31.943Z,15.17
2023-01-08T10:23:10.506Z,15.22
2023-01-08T10:25:50.082Z,15.60
2023-01-08T10:28:21.027Z,15.08
2023-01-08T10:30:48.767Z,15.31
2023-01-08T10:33:21.474Z,15.01
2023-01-08T10:35:55.513Z,15.91
2023-01-08T10:38:32.203Z,15.81
2023-01-08T10:41:03.932Z,15.98
2023-01-08T10:43:35.129Z,15.61
2023-01-08T10:46:05.206Z,15.85
2023-01-08T10:48:39.486Z,15.51
2023-01-08T10:51:15.890Z,15.19
2023-01-08T10:53:43.409Z,15.02
2023-01-08T10:56:20.211Z,15.80
2023-01-08T10:58:48.212Z,14.93
2023-01-08T11:01:19.534Z,14.72
2023-01-08T11:03:52.733Z,15.34
2023-01-08T11:06:23.809Z,14.40
2023-01-08T11:08:52.647Z,14.75
2023-01-08T11:11:20.334Z,15.09
2023-01-08T11:13:59.106Z,15.97
2023-01-08T11:16:35.367Z,15.68
2023-01-08T11:19:06.210Z,16.22
2023-01-08T11:21:34.434Z,16.29
2023-01-08T11:24:10.746Z,15.80
2023-01-08T11:26:43.647Z,16.45
2023-01-08T11:29:18.513Z,16.23
2023-01-08T11:31:54.869Z,15.95
2023-01-08T11:34:29.539Z,16.33
2023-01-08T11:37:05.130Z,16.27
2023-01-08T11:39:35.472Z,16.15
2023-01-08T11:42:32.075Z,15.48
2023-01-08T11:45:13.948Z,14.88
2023-01-08T11:48:00.301Z,15.03
2023-01-08T11:50:35.959Z,16.15
2023-01-08T11:53:15.643Z,16.30
2023-01-08T11:55:53.409Z,16.11
2023-01-08T11:58:28.569Z,16.25
2023-01-08T12:01:07.944Z,16.52
2023-01-08T12:03:40.766Z,17.08
2023-01-08T12:06:28.336Z,16.97
2023-01-08T12:09:07.418Z,16.48
2023-01-08T12:11:44.208Z,16.22
2023-01-08T12:14:34.098Z,16.37
2023-01-08T12:17:18.937Z,16.81
2023-01-08T12:20:07.468Z,16.87
2023-01-08T12:22:45.173Z,16.65
2023-01-08T12:25:38.225Z,16.87
2023-01-08T12:28:29.016Z,16.88
2023-01-08T12:31:16.085Z,16.90
2023-01-08T12:33:48.876Z,17.16
2023-01-08T12:36:22.341Z,17.13
2023-01-08T12:38:59.049Z,17.35
2023-01-08T12:41:27.059Z,17.15
2023-01-08T12:43:59.743Z,16.91
2023-01-08T12:46:31.868Z,17.31
2023-01-08T12:49:01.190Z,17.75
2023-01-08T12:51:35.809Z,17.44
2023-01-08T12:54:11.529Z,17.45
2023-01-08T12:56:46.714Z,17.43
2023-01-08T12:59:29.611Z,17.46
2023-01-08T13:02:03.104Z,17.70
2023-01-08T13:04:39.912Z,17.74
2023-01-08T13:07:12.015Z,16.94
2023-01-08T13:09:40.952Z,17.59
2023-01-08T13:12:13.414Z,17.07
2023-01-08T13:14:42.663Z,17.06
2023-01-08T13:17:18.520Z,17.40
2023-01-08T13:19:53.120Z,17.72
2023-01-08T13:22:26.399Z,17.47
2023-01-08T13:25:09.241Z,18.09
2023-01-08T13:27:36.128Z,17.82
2023-01-08T13:30:03.020Z,18.47
2023-01-08T13:32:43.991Z,17.97
2023-01-08T13:35:23.700Z,18.32
2023-01-08T13:37:53.053Z,18.63
2023-01-08T13:40:53.194Z,18.52
2023-01-08T13:43:24.058Z,18.69
2023-01-08T13:46:08.149Z,18.99
2023-01-08T13:48:39.712Z,19.20
2023-01-08T13:51:25.160Z,19.20
2023-01-08T13:53:53.357Z,19.21
2023-01-08T13:56:22.369Z,18.51
2023-01-08T13:58:54.637Z,18.30
2023-01-08T14:01:22.896Z,18.76
2023-01-08T14:03:50.209Z,18.33
2023-01-08T14:06:20.749Z,17.88
2023-01-08T14:08:51.981Z,17.52
2023-01-08T14:11:23.729Z,17.74
2023-01-08T14:13:52.025Z,17.77
2023-01-08T14:16:21.013Z,17.95
2023-01-08T14:18:50.094Z,17.79
2023-01-08T14:21:22.916Z,17.52
2023-01-08T14:23:51.816Z,17.82
2023-01-08T14:26:27.706Z,17.80
2023-01-08T14:28:55.336Z,17.69
2023-01-08T14:31:24.910Z,17.39
2023-01-08T14:33:53.298Z,17.52
2023-01-08T14:36:21.594Z,17.42
2023-01-08T14:38:49.617Z,17.53
2023-01-08T14:41:25.499Z,17.56
2023-01-08T14:43:54.668Z,17.68
2023-01-08T14:46:26.622Z,17.71
2023-01-08T14:48:54.697Z,17.63
2023-01-08T14:51:23.735Z,17.12
2023-01-08T14:53:55.170Z,17.44
2023-01-08T14:56:28.054Z,17.85
2023-01-08T14:58:57.629Z,17.76
2023-01-08T15:01:28.049Z,17.36
2023-01-08T15:04:06.360Z,17.55
2023-01-08T15:06:33.853Z,17.65
2023-01-08T15:09:01.175Z,17.24
2023-01-08T15:11:31.180Z,17.51
2023-01-08T15:14:00.211Z,17.64
2023-01-08T15:16:31.094Z,17.49
2023-01-08T15:19:04.579Z,17.22
2023-01-08T15:21:32.642Z,16.92
2023-01-08T15:24:01.298Z,17.13
2023-01-08T15:26:28.791Z,16.96
2023-01-08T15:28:58.348Z,17.27
2023-01-08T15:31:31.979Z,17.58
2023-01-08T15:34:00.855Z,17.69
2023-01-08T15:36:27.892Z,17.42
2023-01-08T15:38:55.546Z,17.69
2023-01-08T15:41:34.852Z,17.73
2023-01-08T15:44:02.135Z,17.72
2023-01-08T15:46:30.940Z,17.75
2023-01-08T15:48:58.530Z,17.65
2023-01-08T15:51:26.686Z,17.77
2023-01-08T15:53:54.082Z,17.27
2023-01-08T15:56:21.475Z,17.22
2023-01-08T15:58:48.794Z,17.08
2023-01-08T16:01:16.549Z,17.29
2023-01-08T16:03:46.046Z,17.16
2023-01-08T16:06:13.687Z,16.42
2023-01-08T16:08:41.939Z,16.73
2023-01-08T16:11:09.427Z,16.61
2023-01-08T16:13:36.736Z,16.70
2023-01-08T16:16:08.102Z,16.59
2023-01-08T16:18:36.157Z,16.58
2023-01-08T16:21:05.588Z,16.56
2023-01-08T16:23:34.189Z,16.54
2023-01-08T16:26:05.632Z,16.60
2023-01-08T16:28:32.560Z,16.67
2023-01-08T16:31:00.120Z,16.27
2023-01-08T16:33:27.382Z,16.17
2023-01-08T16:35:57.633Z,16.09
2023-01-08T16:38:26.434Z,16.03
2023-01-08T16:40:54.134Z,15.93
2023-01-08T16:43:21.501Z,15.91
2023-01-08T16:45:49.466Z,15.64
2023-01-08T16:48:18.112Z,15.72
2023-01-08T16:50:45.739Z,15.80
2023-01-08T16:53:13.504Z,15.58
2023-01-08T16:55:42.629Z,15.38
2023-01-08T16:58:10.332Z,15.32
2023-01-08T17:00:38.562Z,15.25
2023-01-08T17:03:06.801Z,14.65
2023-01-08T17:05:36.784Z,14.78
2023-01-08T17:08:04.391Z,14.65
2023-01-08T17:10:32.034Z,14.76
2023-01-08T17:13:00.240Z,14.92
2023-01-08T17:15:27.600Z,14.77
2023-01-08T17:17:55.417Z,14.90
2023-01-08T17:20:22.670Z,14.93
2023-01-08T17:22:49.402Z,15.01
2023-01-08T17:25:17.539Z,15.16
2023-01-08T17:27:45.107Z,15.14
2023-01-08T17:30:14.185Z,15.29
2023-01-08T17:32:42.108Z,15.29
2023-01-08T17:35:09.228Z,15.32
2023-01-08T17:37:37.092Z,15.46
2023-01-08T17:40:05.035Z,15.33
2023-01-08T17:42:32.266Z,15.41
2023-01-08T17:45:00.973Z,15.40
2023-01-08T17:47:31.076Z,15.17
2023-01-08T17:49:58.820Z,15.38
2023-01-08T17:52:26.196Z,15.36
2023-01-08T17:54:53.736Z,15.50
2023-01-08T17:57:21.669Z,15.46
2023-01-08T17:59:49.676Z,15.31
2023-01-08T18:02:18.947Z,15.25
2023-01-08T18:04:47.732Z,15.20
2023-01-08T18:07:15.340Z,15.27
2023-01-08T18:09:43.272Z,15.21
2023-01-08T18:12:10.023Z,14.98
2023-01-08T18:14:37.612Z,14.93
2023-01-08T18:17:05.297Z,14.98
2023-01-08T18:19:32.506Z,15.19
2023-01-08T18:22:01.896Z,15.03
2023-01-08T18:24:29.184Z,14.85
2023-01-08T18:26:57.124Z,14.76
2023-01-08T18:29:24.499Z,14.41
2023-01-08T18:31:52.400Z,14.65
2023-01-08T18:34:20.046Z,14.62
2023-01-08T18:36:47.321Z,14.78
2023-01-08T18:39:16.361Z,14.92
2023-01-08T18:41:43.632Z,14.98
2023-01-08T18:44:11.437Z,14.93
2023-01-08T18:46:40.260Z,14.97
2023-01-08T18:49:07.807Z,15.04
2023-01-08T18:51:35.468Z,14.83
2023-01-08T18:54:02.258Z,14.85
2023-01-08T18:56:32.372Z,14.95
2023-01-08T18:58:59.618Z,14.68
2023-01-08T19:01:27.444Z,14.77
2023-01-08T19:03:57.108Z,14.62
2023-01-08T19:06:24.951Z,14.72
2023-01-08T19:08:52.553Z,14.57
2023-01-08T19:11:20.018Z,14.60
2023-01-08T19:13:48.261Z,14.65
2023-01-08T19:16:15.706Z,14.47
2023-01-08T19:18:44.854Z,14.42
2023-01-08T19:21:13.593Z,14.37
2023-01-08T19:23:41.281Z,14.39
2023-01-08T19:26:08.838Z,14.53
2023-01-08T19:28:36.718Z,14.36
2023-01-08T19:31:06.094Z,14.49
2023-01-08T19:33:32.840Z,14.74
2023-01-08T19:36:01.823Z,14.77
2023-01-08T19:38:28.841Z,14.70
2023-01-08T19:40:58.333Z,14.62
2023-01-08T19:43:25.752Z,14.72
2023-01-08T19:45:52.552Z,14.77
2023-01-08T19:48:21.210Z,14.20
2023-01-08T19:50:48.485Z,14.46
2023-01-08T19:53:16.179Z,14.46
2023-01-08T19:55:43.776Z,14.50
2023-01-08T19:58:11.186Z,14.43
2023-01-08T20:00:38.579Z,14.25
2023-01-08T20:03:05.648Z,14.41
2023-01-08T20:05:33.814Z,14.48
2023-01-08T20:08:00.645Z,14.48
2023-01-08T20:10:28.070Z,14.73
2023-01-08T20:12:55.488Z,14.68
2023-01-08T20:15:22.905Z,14.63
2023-01-08T20:17:50.275Z,14.86
2023-01-08T20:20:17.045Z,14.64
2023-01-08T20:22:45.783Z,14.79
2023-01-08T20:25:13.108Z,14.65
2023-01-08T20:27:40.448Z,14.61
2023-01-08T20:30:11.917Z,14.92
2023-01-08T20:32:39.121Z,14.98
2023-01-08T20:35:07.532Z,14.98
2023-01-08T20:37:35.013Z,14.85
2023-01-08T20:40:04.132Z,14.78
2023-01-08T20:42:34.605Z,14.70
2023-01-08T20:45:02.547Z,14.69
2023-01-08T20:47:29.699Z,14.76
2023-01-08T20:49:56.985Z,14.89
2023-01-08T20:52:23.790Z,15.00
2023-01-08T20:54:51.028Z,15.14
2023-01-08T20:57:19.872Z,15.24
2023-01-08T20:59:47.593Z,15.38
2023-01-08T21:02:14.944Z,15.11
2023-01-08T21:04:42.632Z,14.78
2023-01-08T21:07:09.982Z,14.84
2023-01-08T21:09:39.046Z,14.79
2023-01-08T21:12:07.520Z,14.99
2023-01-08T21:14:36.661Z,14.70
2023-01-08T21:17:03.881Z,14.62
2023-01-08T21:19:31.217Z,14.28
2023-01-08T21:21:58.570Z,14.52
2023-01-08T21:24:26.045Z,14.52
2023-01-08T21:26:53.520Z,14.05
2023-01-08T21:29:21.218Z,14.21
2023-01-08T21:31:49.933Z,14.47
2023-01-08T21:34:17.308Z,14.37
2023-01-08T21:36:44.990Z,14.29
2023-01-08T21:39:12.221Z,14.43
2023-01-08T21:41:39.620Z,14.47
2023-01-08T21:44:12.336Z,14.50
2023-01-08T21:46:39.739Z,14.26
2023-01-08T21:49:08.464Z,14.20
2023-01-08T21:51:35.946Z,14.48
2023-01-08T21:54:03.661Z,14.34
2023-01-08T21:56:31.172Z,14.39
2023-01-08T21:58:58.739Z,14.43
2023-01-08T22:01:26.492Z,14.20
2023-01-08T22:03:53.911Z,14.16
2023-01-08T22:06:23.563Z,14.28
2023-01-08T22:08:52.709Z,14.46
2023-01-08T22:11:20.249Z,14.36
2023-01-08T22:13:48.230Z,14.29
2023-01-08T22:16:15.711Z,14.35
2023-01-08T22:18:43.181Z,14.49
2023-01-08T22:21:12.968Z,14.61
2023-01-08T22:23:41.810Z,14.48
2023-01-08T22:26:11.244Z,14.39
2023-01-08T22:28:39.354Z,14.30
2023-01-08T22:31:07.597Z,14.55
2023-01-08T22:33:34.980Z,14.63
2023-01-08T22:36:02.969Z,14.54
2023-01-08T22:38:30.380Z,14.69
2023-01-08T22:40:58.643Z,14.69
2023-01-08T22:43:26.430Z,14.51
2023-01-08T22:45:54.044Z,14.83
2023-01-08T22:48:22.298Z,14.95
2023-01-08T22:50:49.856Z,15.00
2023-01-08T22:53:17.339Z,15.16
2023-01-08T22:55:46.171Z,15.13
2023-01-08T22:58:16.386Z,14.82
2023-01-08T23:00:44.439Z,14.89
2023-01-08T23:03:12.115Z,14.91
2023-01-08T23:05:40.563Z,14.68
2023-01-08T23:08:08.481Z,14.64
2023-01-08T23:10:36.453Z,14.62
2023-01-08T23:13:03.964Z,14.41
2023-01-08T23:15:32.701Z,14.48
2023-01-08T23:17:59.954Z,14.48
2023-01-08T23:20:27.222Z,14.33
2023-01-08T23:22:54.650Z,14.31
2023-01-08T23:25:21.925Z,14.19
2023-01-08T23:27:49.266Z,13.90
2023-01-08T23:30:16.478Z,14.04
2023-01-08T23:32:45.061Z,13.81
2023-01-08T23:35:11.868Z,13.81
2023-01-08T23:37:39.113Z,13.91
2023-01-08T23:40:07.391Z,13.89
2023-01-08T23:42:34.862Z,14.04
2023-01-08T23:45:02.276Z,14.00
2023-01-08T23:47:29.596Z,14.33
2023-01-08T23:49:57.811Z,14.18
2023-01-08T23:52:24.942Z,14.15
2023-01-08T23:54:52.535Z,14.13
2023-01-08T23:57:19.987Z,14.35
2023-01-08T23:59:46.743Z,14.50
